Time;durP1;ratioP1;P1;durP2;ratioP2;P2;SDS_P1;SDS_P2;PMS_P1;PMS_P2;Temp;Humidity;BMP_temperature;BMP_pressure;BME280_temperature;BME280_humidity;BME280_pressure;Samples;Min_cycle;Max_cycle;Signal;HPM_P1;HPM_P2
2022/05/17 00:01:53;;;;;;;1.90;1.20;;;;;;;13.67;52.65;100790.40;1819075;79;20895;-85
2022/05/17 00:04:20;;;;;;;4.60;1.45;;;;;;;13.67;52.65;100790.40;1819107;79;20911;-85
2022/05/17 00:06:48;;;;;;;3.75;1.25;;;;;;;13.64;53.10;100786.19;1819147;78;20875;-85
2022/05/17 00:09:16;;;;;;;4.35;1.10;;;;;;;13.62;53.04;100800.43;1819231;79;21280;-83
2022/05/17 00:11:45;;;;;;;2.02;1.77;;;;;;;13.58;53.12;100804.22;1819213;79;20997;-85
2022/05/17 00:14:13;;;;;;;2.47;0.95;;;;;;;13.54;53.61;100803.61;1819185;77;21361;-85
2022/05/17 00:16:40;;;;;;;4.10;1.37;;;;;;;13.51;53.60;100807.76;1819117;78;20888;-85
2022/05/17 00:19:09;;;;;;;6.47;1.30;;;;;;;13.48;53.76;100806.19;1819157;78;20919;-85
2022/05/17 00:21:36;;;;;;;3.25;1.95;;;;;;;13.47;54.17;100804.97;1789831;79;21200;-85
2022/05/17 00:24:05;;;;;;;3.45;1.40;;;;;;;13.43;53.89;100804.35;1819355;77;20894;-86
2022/05/17 00:26:37;;;;;;;4.05;2.00;;;;;;;13.42;54.10;100803.97;1819178;79;20856;-87
2022/05/17 00:29:03;;;;;;;2.62;1.00;;;;;;;13.40;53.89;100808.98;1818507;79;20871;-86
2022/05/17 00:31:30;;;;;;;1.52;0.88;;;;;;;13.38;53.68;100808.23;1819465;79;21391;-85
2022/05/17 00:33:57;;;;;;;1.60;0.98;;;;;;;13.36;53.58;100799.14;1818999;77;21227;-85
2022/05/17 00:36:24;;;;;;;8.35;1.52;;;;;;;13.34;53.65;100798.41;1818963;79;20902;-85
2022/05/17 00:38:51;;;;;;;3.33;1.52;;;;;;;13.33;53.65;100806.41;1819076;79;20903;-85
2022/05/17 00:41:18;;;;;;;3.27;1.22;;;;;;;13.30;53.64;100808.78;1819069;79;21380;-85
2022/05/17 00:46:55;;;;;;;3.62;1.27;;;;;;;13.24;54.03;100806.05;1819052;79;21250;-85
2022/05/17 00:49:34;;;;;;;2.10;1.10;;;;;;;13.24;54.03;100806.05;1819150;79;20965;-85
2022/05/17 00:52:05;;;;;;;3.60;0.95;;;;;;;13.23;54.13;100808.80;1818824;78;20828;-85
2022/05/17 00:54:32;;;;;;;6.37;1.37;;;;;;;13.17;54.61;100795.56;1820343;79;20872;-85
2022/05/17 00:57:22;;;;;;;1.77;1.00;;;;;;;13.17;54.61;100795.56;1793100;79;20958;-81
2022/05/17 00:59:49;;;;;;;3.47;0.93;;;;;;;13.14;54.51;100802.81;1818321;77;21243;-84
2022/05/17 01:02:16;;;;;;;1.72;1.20;;;;;;;13.10;54.75;100800.05;1819882;78;21533;-85
2022/05/17 01:04:42;;;;;;;7.62;1.22;;;;;;;13.05;54.48;100803.83;1819272;77;20859;-85
2022/05/17 01:07:17;;;;;;;8.55;1.35;;;;;;;13.02;55.09;100807.13;1789626;79;21492;-86
2022/05/17 01:09:43;;;;;;;4.03;1.42;;;;;;;12.97;54.95;100817.97;1819230;78;20951;-84
2022/05/17 01:12:11;;;;;;;4.05;0.90;;;;;;;12.92;55.11;100815.30;1819111;78;21914;-85
2022/05/17 01:14:57;;;;;;;1.60;1.02;;;;;;;12.88;55.15;100807.23;1818955;78;20903;-85
2022/05/17 01:17:32;;;;;;;4.67;1.10;;;;;;;12.83;55.01;100800.95;1819133;78;20899;-85
2022/05/17 01:19:58;;;;;;;4.47;1.20;;;;;;;12.79;54.78;100808.67;1818949;79;20955;-85
2022/05/17 01:22:25;;;;;;;1.87;1.20;;;;;;;12.76;54.58;100810.17;1819163;79;20871;-84
2022/05/17 01:24:52;;;;;;;5.17;1.42;;;;;;;12.73;54.75;100798.55;1819042;78;21254;-86
2022/05/17 01:27:42;;;;;;;2.60;1.07;;;;;;;12.70;54.60;100794.81;1819009;77;20907;-86
2022/05/17 01:30:18;;;;;;;8.25;1.35;;;;;;;12.68;54.68;100794.07;1817767;77;20926;-86
2022/05/17 01:32:44;;;;;;;2.58;0.80;;;;;;;12.67;54.22;100797.16;1818990;78;21357;-85
2022/05/17 01:35:11;;;;;;;3.70;1.10;;;;;;;12.65;54.20;100797.27;1819300;79;20867;-85
2022/05/17 01:37:39;;;;;;;4.12;0.85;;;;;;;12.64;54.18;100791.62;1818983;77;21231;-86
2022/05/17 01:40:07;;;;;;;1.72;0.95;;;;;;;12.63;54.27;100803.11;1819051;77;20915;-85
2022/05/17 01:42:34;;;;;;;3.20;1.15;;;;;;;12.62;53.94;100796.14;1819135;79;20863;-85
2022/05/17 01:45:00;;;;;;;2.58;0.70;;;;;;;12.61;53.57;100806.78;1819258;77;20911;-84
2022/05/17 01:47:27;;;;;;;2.98;0.95;;;;;;;12.60;53.17;100803.29;1819116;77;20950;-85
2022/05/17 01:49:54;;;;;;;5.33;1.32;;;;;;;12.60;53.38;100813.81;1764394;79;21224;-85
2022/05/17 01:52:21;;;;;;;2.02;0.85;;;;;;;12.59;53.36;100795.52;1819063;79;20914;-84
2022/05/17 01:54:48;;;;;;;6.90;0.60;;;;;;;12.57;53.15;100808.77;1818985;79;20911;-85
2022/05/17 01:57:15;;;;;;;2.70;0.80;;;;;;;12.57;52.96;100805.30;1819047;79;20857;-84
2022/05/17 01:59:42;;;;;;;5.28;0.80;;;;;;;12.55;52.96;100792.23;1821480;77;20824;-84
2022/05/17 02:02:09;;;;;;;3.30;1.00;;;;;;;12.56;52.73;100797.02;1820777;77;21199;-83
2022/05/17 02:04:35;;;;;;;3.98;0.85;;;;;;;12.55;52.32;100804.07;1819206;79;20943;-84
2022/05/17 02:07:03;;;;;;;2.33;1.30;;;;;;;12.56;51.82;100801.83;1819432;77;20910;-85
2022/05/17 02:09:31;;;;;;;2.30;0.75;;;;;;;12.55;51.86;100804.07;1818959;78;20934;-86
2022/05/17 02:11:58;;;;;;;2.22;0.60;;;;;;;12.55;51.56;100808.02;1819093;78;20939;-85
2022/05/17 02:14:25;;;;;;;2.77;0.70;;;;;;;12.54;51.76;100808.11;1819245;79;21136;-85
2022/05/17 02:16:53;;;;;;;5.37;1.00;;;;;;;12.53;51.75;100807.75;1819173;77;20891;-84
2022/05/17 02:19:22;;;;;;;6.22;1.00;;;;;;;12.50;52.13;100808.80;1819166;78;20899;-84
2022/05/17 02:21:49;;;;;;;4.67;0.80;;;;;;;12.49;52.05;100816.78;1819419;78;21416;-84
2022/05/17 02:24:16;;;;;;;2.25;0.80;;;;;;;12.47;51.72;100814.23;1819289;79;21479;-84
2022/05/17 02:26:43;;;;;;;1.05;0.60;;;;;;;12.46;51.56;100812.56;1819275;77;21232;-83
2022/05/17 02:29:10;;;;;;;5.37;0.65;;;;;;;12.45;51.69;100821.41;1819447;78;20931;-83
2022/05/17 02:31:37;;;;;;;1.15;0.65;;;;;;;12.43;51.93;100821.50;1819174;77;21021;-83
2022/05/17 02:34:04;;;;;;;4.42;0.62;;;;;;;12.43;52.12;100825.93;1819154;79;21392;-83
2022/05/17 02:36:31;;;;;;;6.50;0.90;;;;;;;12.43;51.94;100820.19;1819318;77;20832;-84
2022/05/17 02:38:58;;;;;;;7.75;2.67;;;;;;;12.43;52.12;100817.56;1819347;77;21177;-84
2022/05/17 02:41:25;;;;;;;3.55;0.75;;;;;;;12.43;52.25;100818.88;1819269;79;20950;-84
2022/05/17 02:43:53;;;;;;;10.30;1.00;;;;;;;12.43;52.24;100821.50;1819571;77;20863;-83
2022/05/17 02:46:21;;;;;;;3.58;0.57;;;;;;;12.45;52.73;100817.47;1819332;77;20918;-83
2022/05/17 02:48:48;;;;;;;4.95;0.60;;;;;;;12.46;52.73;100818.30;1819414;77;20946;-84
2022/05/17 02:51:18;;;;;;;10.78;0.93;;;;;;;12.48;52.84;100820.37;1819654;78;21137;-84
2022/05/17 02:53:44;;;;;;;2.30;0.80;;;;;;;12.48;53.21;100816.42;1821321;77;20839;-84
2022/05/17 02:56:13;;;;;;;4.15;0.93;;;;;;;12.49;52.87;100823.36;1822615;78;20836;-83
2022/05/17 02:58:40;;;;;;;1.52;0.53;;;;;;;12.50;53.48;100825.89;1822976;78;20922;-82
2022/05/17 03:01:06;;;;;;;2.05;1.05;;;;;;;12.51;53.98;100825.42;1822617;78;20973;-83
2022/05/17 03:03:40;;;;;;;3.40;0.82;;;;;;;12.50;54.69;100824.58;1823344;78;21879;-82
2022/05/17 03:06:07;;;;;;;4.35;1.32;;;;;;;12.51;54.86;100826.73;1823950;78;21321;-83
2022/05/17 03:08:36;;;;;;;0.78;0.60;;;;;;;12.50;55.04;100832.47;1822359;78;21340;-83
2022/05/17 03:11:05;;;;;;;5.15;0.82;;;;;;;12.50;55.57;100831.16;1822117;78;20828;-84
2022/05/17 03:13:33;;;;;;;5.08;0.60;;;;;;;12.50;55.90;100831.64;1822020;77;20863;-86
2022/05/17 03:16:00;;;;;;;1.50;0.50;;;;;;;12.49;55.76;100831.25;1821982;78;21270;-84
2022/05/17 03:18:27;;;;;;;4.05;1.98;;;;;;;12.48;55.39;100826.47;1822036;78;21458;-84
2022/05/17 03:20:54;;;;;;;4.55;1.17;;;;;;;12.49;55.11;100825.98;1822466;78;20954;-85
2022/05/17 03:23:21;;;;;;;5.85;1.45;;;;;;;12.52;54.42;100825.33;1822006;78;20922;-84
2022/05/17 03:25:49;;;;;;;5.25;0.72;;;;;;;12.55;54.34;100829.54;1822095;77;20950;-84
2022/05/17 03:28:16;;;;;;;5.78;0.70;;;;;;;12.58;54.13;100825.38;1822145;78;21199;-84
2022/05/17 03:30:43;;;;;;;3.60;0.80;;;;;;;12.63;53.92;100828.58;1821939;77;20906;-84
2022/05/17 03:33:09;;;;;;;1.37;0.65;;;;;;;12.67;53.45;100829.20;1822068;78;20918;-84
2022/05/17 03:35:37;;;;;;;2.60;0.65;;;;;;;12.71;53.82;100828.90;1822005;78;20950;-83
2022/05/17 03:38:05;;;;;;;4.55;0.72;;;;;;;12.75;53.66;100827.76;1821967;78;20867;-85
2022/05/17 03:40:32;;;;;;;2.52;0.88;;;;;;;12.82;53.56;100825.57;1822749;78;21054;-84
2022/05/17 03:43:00;;;;;;;1.50;0.80;;;;;;;12.92;53.31;100819.24;1822739;78;20954;-83
2022/05/17 03:45:26;;;;;;;5.85;0.60;;;;;;;13.00;53.25;100819.07;1822334;77;20973;-82
2022/05/17 03:47:55;;;;;;;4.80;0.70;;;;;;;13.07;53.10;100819.50;1822770;78;20931;-83
2022/05/17 03:50:22;;;;;;;4.20;0.70;;;;;;;13.12;52.71;100823.17;1822364;77;20840;-82
2022/05/17 03:52:49;;;;;;;10.03;1.25;;;;;;;13.17;52.46;100822.38;1819370;78;21408;-83
2022/05/17 03:55:17;;;;;;;5.22;1.02;;;;;;;13.23;52.29;100822.80;1810735;79;20900;-84
2022/05/17 03:57:45;;;;;;;4.40;1.62;;;;;;;13.31;52.54;100827.57;1811530;79;20816;-84
2022/05/17 04:00:13;;;;;;;8.43;1.45;;;;;;;13.40;53.21;100829.57;1811540;79;20879;-83
2022/05/17 04:02:39;;;;;;;3.08;1.82;;;;;;;13.51;53.55;100825.37;1811659;79;21478;-85
2022/05/17 04:05:09;;;;;;;5.70;1.67;;;;;;;13.63;53.79;100821.41;1811924;79;21884;-85
2022/05/17 04:07:38;;;;;;;3.37;0.75;;;;;;;13.77;53.06;100821.77;1813338;79;21005;-85
2022/05/17 04:10:10;;;;;;;4.33;0.88;;;;;;;13.91;52.45;100814.67;1814597;79;20906;-86
2022/05/17 04:12:38;;;;;;;8.60;1.57;;;;;;;14.05;52.15;100812.75;1812333;78;20958;-84
2022/05/17 04:15:07;;;;;;;4.30;0.68;;;;;;;14.27;52.60;100816.01;1811698;79;21005;-85
2022/05/17 04:17:33;;;;;;;3.37;0.53;;;;;;;14.70;51.83;100814.20;1811583;79;21254;-85
2022/05/17 04:20:00;;;;;;;4.12;0.57;;;;;;;15.30;50.21;100820.73;1811745;79;20935;-86
2022/05/17 04:22:27;;;;;;;1.30;0.50;;;;;;;15.88;47.37;100819.35;1811587;79;20947;-85
2022/05/17 04:24:57;;;;;;;7.53;0.72;;;;;;;16.48;46.74;100824.64;1811645;79;20871;-86
2022/05/17 04:27:25;;;;;;;3.27;0.40;;;;;;;17.07;44.59;100821.98;1811683;79;21329;-85
2022/05/17 04:29:52;;;;;;;5.67;0.70;;;;;;;17.65;42.57;100821.97;1811881;79;21150;-84
2022/05/17 04:32:20;;;;;;;3.90;0.70;;;;;;;18.21;41.75;100824.98;1811506;78;20950;-84
2022/05/17 04:34:47;;;;;;;5.67;1.15;;;;;;;18.72;39.15;100815.12;1811646;79;20958;-85
2022/05/17 04:37:15;;;;;;;2.65;0.60;;;;;;;19.20;38.29;100810.24;1811373;79;20919;-85
2022/05/17 04:39:43;;;;;;;2.65;0.80;;;;;;;19.70;37.58;100809.63;1786895;79;20848;-84
2022/05/17 04:42:10;;;;;;;2.62;0.55;;;;;;;20.17;37.57;100806.37;1811544;79;21174;-85
2022/05/17 04:44:37;;;;;;;7.70;1.30;;;;;;;20.64;35.95;100807.52;1811343;79;20950;-84
2022/05/17 04:47:04;;;;;;;5.58;2.08;;;;;;;21.05;35.69;100807.01;1811598;78;20859;-85
2022/05/17 04:49:32;;;;;;;4.60;2.27;;;;;;;21.41;34.87;100805.60;1811483;79;20882;-85
2022/05/17 04:52:01;;;;;;;6.45;1.95;;;;;;;21.79;34.93;100816.80;1811783;79;20970;-85
2022/05/17 04:54:29;;;;;;;4.95;1.10;;;;;;;22.17;34.44;100819.96;1817962;78;21246;-85
2022/05/17 04:56:56;;;;;;;1.77;0.80;;;;;;;22.55;33.89;100817.22;1819084;79;20919;-85
2022/05/17 04:59:23;;;;;;;3.02;0.30;;;;;;;22.92;32.85;100815.40;1819281;79;21407;-84
2022/05/17 05:01:51;;;;;;;4.97;0.98;;;;;;;23.21;31.07;100810.05;1819082;79;20970;-86
2022/05/17 05:04:18;;;;;;;2.52;0.53;;;;;;;23.42;30.58;100817.52;1819319;79;20863;-83
2022/05/17 05:06:44;;;;;;;5.65;0.37;;;;;;;23.68;30.15;100821.77;1819860;79;21235;-86
2022/05/17 05:09:12;;;;;;;2.05;0.40;;;;;;;23.92;29.59;100820.88;1819117;79;20895;-83
2022/05/17 05:11:39;;;;;;;2.05;0.50;;;;;;;24.10;28.77;100816.12;1820115;77;20927;-83
2022/05/17 05:14:05;;;;;;;2.15;0.80;;;;;;;24.32;28.80;100802.91;1822991;79;20808;-83
2022/05/17 05:16:32;;;;;;;4.15;0.40;;;;;;;24.66;28.47;100811.09;1819700;79;21408;-84
2022/05/17 05:19:01;;;;;;;2.33;0.30;;;;;;;24.90;28.58;100815.39;1819421;78;21049;-85
2022/05/17 05:21:28;;;;;;;2.27;0.90;;;;;;;25.13;28.47;100801.95;1819622;77;21396;-85
2022/05/17 05:23:54;;;;;;;1.62;0.30;;;;;;;25.38;28.15;100806.58;1819531;78;21456;-85
2022/05/17 05:26:22;;;;;;;14.63;1.98;;;;;;;25.59;26.03;100799.97;1819538;79;20958;-84
2022/05/17 05:28:49;;;;;;;6.60;1.00;;;;;;;25.78;25.34;100801.74;1819203;78;20843;-85
2022/05/17 05:31:17;;;;;;;1.02;0.30;;;;;;;25.89;24.16;100796.44;1819160;77;21245;-84
2022/05/17 05:33:45;;;;;;;1.77;0.35;;;;;;;26.02;23.93;100794.73;1819081;79;20903;-84
2022/05/17 05:36:12;;;;;;;1.85;0.30;;;;;;;26.21;24.39;100792.44;1819711;77;20847;-85
2022/05/17 05:38:39;;;;;;;2.47;0.30;;;;;;;26.42;23.72;100793.81;1818937;79;21425;-86
2022/05/17 05:41:12;;;;;;;12.07;2.55;;;;;;;26.51;23.19;100794.52;1819245;79;20828;-87
2022/05/17 05:43:39;;;;;;;1.42;0.60;;;;;;;26.55;22.70;100789.59;1819348;77;21223;-84
2022/05/17 05:46:06;;;;;;;1.42;0.20;;;;;;;26.52;22.68;100794.00;1819291;78;21389;-87
2022/05/17 05:48:34;;;;;;;53.25;14.23;;;;;;;26.63;22.61;100795.67;1819550;79;20887;-85
2022/05/17 05:51:01;;;;;;;7.50;1.15;;;;;;;26.78;23.05;100792.92;1819604;77;21391;-85
2022/05/17 05:53:28;;;;;;;7.65;0.45;;;;;;;26.99;22.98;100791.20;1819783;78;20878;-85
2022/05/17 05:57:21;;;;;;;2.33;0.23;;;;;;;27.29;22.39;100794.04;1884234;75;22345;-83
2022/05/17 05:59:53;;;;;;;2.20;0.53;;;;;;;27.28;21.61;100791.56;1861047;77;20820;-86
2022/05/17 06:02:20;;;;;;;0.80;0.13;;;;;;;27.31;21.26;100788.47;1860956;76;21132;-87
2022/05/17 06:04:48;;;;;;;2.15;0.25;;;;;;;27.36;21.91;100786.00;1861018;76;20919;-84
2022/05/17 06:07:15;;;;;;;1.57;0.42;;;;;;;27.52;21.69;100786.70;1860783;77;21014;-84
2022/05/17 06:09:44;;;;;;;3.90;0.30;;;;;;;27.69;21.80;100783.47;1861048;77;20962;-85
2022/05/17 06:12:12;;;;;;;0.95;0.10;;;;;;;27.78;21.66;100790.05;1861015;77;20871;-84
2022/05/17 06:14:39;;;;;;;1.15;0.20;;;;;;;27.85;21.69;100786.36;1861053;77;21243;-85
2022/05/17 06:17:06;;;;;;;2.15;0.42;;;;;;;28.00;21.02;100784.04;1862919;76;20864;-83
2022/05/17 06:19:39;;;;;;;5.10;0.55;;;;;;;28.14;21.60;100779.50;1863031;77;21377;-83
2022/05/17 06:22:06;;;;;;;5.42;0.80;;;;;;;28.36;21.42;100776.13;1861019;77;20935;-85
2022/05/17 06:24:33;;;;;;;2.75;0.50;;;;;;;28.59;21.56;100779.80;1860799;77;21040;-86
2022/05/17 06:27:01;;;;;;;3.30;1.37;;;;;;;28.77;20.85;100782.73;1861081;77;21200;-86
2022/05/17 06:29:28;;;;;;;2.85;1.62;;;;;;;28.88;20.98;100784.80;1860659;77;20840;-86
2022/05/17 06:31:55;;;;;;;3.77;0.72;;;;;;;29.05;20.58;100780.30;1860869;77;21464;-87
2022/05/17 06:34:22;;;;;;;0.50;0.50;;;;;;;29.13;19.67;100785.00;1861072;77;20883;-87
2022/05/17 06:36:50;;;;;;;4.30;1.00;;;;;;;29.03;19.68;100779.69;1859269;76;20867;-86
2022/05/17 06:39:17;;;;;;;2.60;0.72;;;;;;;28.84;18.90;100776.80;1860882;77;21215;-85
2022/05/17 06:41:45;;;;;;;2.33;1.55;;;;;;;28.65;19.75;100773.05;1861220;76;20970;-86
2022/05/17 06:44:14;;;;;;;7.75;0.80;;;;;;;28.54;19.88;100769.63;1860813;77;20985;-87
2022/05/17 06:46:41;;;;;;;4.70;0.72;;;;;;;28.50;20.56;100770.58;1860889;77;20955;-84
2022/05/17 06:49:09;;;;;;;2.02;0.40;;;;;;;28.37;19.72;100767.84;1861678;77;20958;-86
2022/05/17 06:51:39;;;;;;;2.90;0.57;;;;;;;28.29;20.24;100774.24;1860706;76;20828;-86
2022/05/17 06:54:06;;;;;;;1.32;0.30;;;;;;;28.18;20.75;100764.06;1860896;76;20950;-87
2022/05/17 06:56:34;;;;;;;4.05;0.60;;;;;;;28.09;20.64;100759.89;1854646;76;20909;-86
2022/05/17 06:59:03;;;;;;;1.37;0.68;;;;;;;28.07;21.01;100767.36;1850235;76;20877;-83
2022/05/17 07:01:30;;;;;;;0.33;0.23;;;;;;;28.17;20.39;100759.72;1850096;77;20909;-86
2022/05/17 07:03:56;;;;;;;2.05;0.30;;;;;;;28.14;20.94;100766.84;1850267;77;21091;-85
2022/05/17 07:06:23;;;;;;;1.22;0.50;;;;;;;28.30;20.43;100762.93;1850083;77;20995;-83
2022/05/17 07:08:50;;;;;;;2.37;0.30;;;;;;;28.39;19.79;100764.42;1849525;77;20885;-83
2022/05/17 07:14:05;;;;;;;7.37;0.30;;;;;;;28.21;20.02;100762.81;1849827;77;20909;-86
2022/05/17 07:16:33;;;;;;;1.47;0.17;;;;;;;28.20;20.44;100761.99;1849449;77;21296;-85
2022/05/17 07:19:01;;;;;;;1.90;0.20;;;;;;;28.35;20.12;100755.07;1849509;76;20838;-84
2022/05/17 07:21:28;;;;;;;0.85;0.53;;;;;;;28.55;20.21;100742.97;1850816;76;20893;-84
2022/05/17 07:23:55;;;;;;;3.27;0.20;;;;;;;28.61;20.12;100744.00;1852430;77;20948;-84
2022/05/17 07:26:22;;;;;;;0.68;0.30;;;;;;;28.79;20.59;100734.77;1850602;77;20858;-84
2022/05/17 07:28:49;;;;;;;4.08;0.25;;;;;;;29.09;20.37;100737.02;1849658;76;21220;-86
2022/05/17 07:31:16;;;;;;;2.67;0.20;;;;;;;29.31;19.71;100741.64;1849366;76;20925;-84
2022/05/17 07:33:43;;;;;;;2.60;0.20;;;;;;;29.36;19.54;100749.10;1849812;77;20866;-84
2022/05/17 07:36:11;;;;;;;1.87;0.30;;;;;;;29.34;19.06;100741.20;1849432;77;20917;-85
2022/05/17 07:38:40;;;;;;;2.77;0.30;;;;;;;29.34;19.67;100754.70;1849596;77;20873;-84
2022/05/17 07:41:08;;;;;;;0.10;0.03;;;;;;;29.55;19.12;100752.27;1849980;77;21461;-85
2022/05/17 07:43:34;;;;;;;3.02;0.33;;;;;;;29.70;18.86;100752.00;1849651;77;21452;-86
2022/05/17 07:46:04;;;;;;;4.62;0.30;;;;;;;29.83;18.52;100750.58;1849618;76;20932;-86
2022/05/17 07:48:31;;;;;;;1.12;0.20;;;;;;;29.95;18.69;100752.92;1849874;76;21366;-87
2022/05/17 07:51:00;;;;;;;1.10;0.20;;;;;;;29.92;19.06;100754.69;1849246;77;20862;-83
2022/05/17 07:53:29;;;;;;;0.55;0.20;;;;;;;29.93;19.41;100756.89;1852309;77;21094;-84
2022/05/17 07:56:00;;;;;;;0.45;0.20;;;;;;;30.01;19.03;100753.09;1848343;77;20881;-83
2022/05/17 07:58:28;;;;;;;2.05;0.20;;;;;;;30.09;18.90;100756.37;1850464;76;21390;-85
2022/05/17 08:00:55;;;;;;;0.20;0.20;;;;;;;30.15;18.85;100755.50;1849583;77;20949;-85
2022/05/17 08:03:22;;;;;;;3.00;0.35;;;;;;;30.21;18.01;100756.48;1849625;76;20853;-84
2022/05/17 08:05:52;;;;;;;2.15;0.40;;;;;;;30.13;19.23;100751.36;1849519;77;21129;-85
2022/05/17 08:08:20;;;;;;;2.37;0.40;;;;;;;30.21;19.57;100742.14;1849405;76;20834;-86
2022/05/17 08:10:49;;;;;;;2.05;0.40;;;;;;;30.39;19.12;100742.23;1849829;77;20948;-85
2022/05/17 08:13:17;;;;;;;2.42;0.10;;;;;;;30.39;19.10;100743.59;1849562;76;20917;-86
2022/05/17 08:15:44;;;;;;;0.95;0.20;;;;;;;30.38;19.03;100739.23;1849488;76;21010;-86
2022/05/17 08:18:13;;;;;;;0.40;0.10;;;;;;;30.34;19.45;100740.72;1849801;77;21846;-86
2022/05/17 08:20:40;;;;;;;1.80;0.20;;;;;;;30.46;19.72;100739.48;1849744;77;20846;-86
2022/05/17 08:23:07;;;;;;;1.67;0.20;;;;;;;30.58;19.79;100737.19;1849841;77;20917;-84
2022/05/17 08:28:19;;;;;;;0.70;0.10;;;;;;;30.89;18.74;100733.31;1853118;77;20807;-83
2022/05/17 08:30:47;;;;;;;0.85;0.23;;;;;;;30.69;18.42;100732.94;1851242;76;21467;-84
2022/05/17 08:33:16;;;;;;;1.12;0.23;;;;;;;30.39;18.52;100725.17;1849990;77;21046;-84
2022/05/17 08:36:04;;;;;;;0.90;0.30;;;;;;;30.07;18.73;100731.94;1849456;77;21003;-85
2022/05/17 08:38:37;;;;;;;1.57;0.15;;;;;;;29.64;19.36;100724.47;1848771;77;20881;-85
2022/05/17 08:41:21;;;;;;;4.53;0.30;;;;;;;29.11;19.25;100716.03;1845940;77;21528;-86
2022/05/17 08:43:57;;;;;;;0.98;0.20;;;;;;;28.63;19.89;100723.03;1849781;76;21283;-85
2022/05/17 08:46:54;;;;;;;0.20;0.10;;;;;;;28.26;20.53;100711.28;1849737;77;20988;-86
2022/05/17 08:49:27;;;;;;;2.75;0.28;;;;;;;28.18;20.73;100704.73;1849891;77;20908;-86
2022/05/17 08:52:14;;;;;;;0.98;0.20;;;;;;;28.19;21.64;100700.16;1849733;77;20968;-86
2022/05/17 08:55:12;;;;;;;7.03;0.50;;;;;;;28.49;21.76;100687.95;1849446;77;20849;-84
2022/05/17 08:57:58;;;;;;;0.20;0.20;;;;;;;28.88;20.98;100691.66;1838149;76;21126;-84
2022/05/17 09:00:33;;;;;;;5.00;0.60;;;;;;;29.12;20.40;100686.62;1835698;76;20931;-86
2022/05/17 09:03:16;;;;;;;0.50;0.10;;;;;;;29.05;18.65;100688.48;1835446;76;20906;-86
2022/05/17 09:06:06;;;;;;;1.47;0.20;;;;;;;28.97;19.53;100677.91;1835331;77;21965;-84
2022/05/17 09:08:48;;;;;;;1.32;0.28;;;;;;;28.71;19.90;100671.02;1835077;76;20942;-85
2022/05/17 09:11:23;;;;;;;2.65;0.50;;;;;;;28.55;19.81;100679.56;1835481;77;21250;-83
2022/05/17 09:14:16;;;;;;;2.22;0.20;;;;;;;28.50;20.64;100680.69;1835049;77;20875;-84
2022/05/17 09:16:49;;;;;;;1.65;0.30;;;;;;;28.47;19.64;100685.98;1835185;77;20875;-86
2022/05/17 09:19:16;;;;;;;2.10;0.30;;;;;;;28.34;19.15;100683.26;1834990;77;20923;-86
2022/05/17 09:21:45;;;;;;;0.47;0.20;;;;;;;28.35;19.87;100674.64;1834931;77;21006;-86
2022/05/17 09:24:15;;;;;;;1.55;0.15;;;;;;;28.48;19.41;100673.31;1835079;77;21384;-85
2022/05/17 09:26:52;;;;;;;2.98;0.35;;;;;;;28.47;19.70;100666.24;1834811;77;21455;-85
2022/05/17 09:29:39;;;;;;;0.20;0.20;;;;;;;28.36;20.50;100683.06;1835080;76;21586;-84
2022/05/17 09:32:11;;;;;;;3.27;0.33;;;;;;;27.96;20.82;100681.68;1837442;77;20918;-84
2022/05/17 09:34:44;;;;;;;0.47;0.20;;;;;;;27.59;20.93;100684.69;1837370;77;20989;-85
2022/05/17 09:37:18;;;;;;;0.90;0.30;;;;;;;27.57;21.05;100681.86;1836358;77;20896;-86
2022/05/17 09:39:49;;;;;;;0.90;0.45;;;;;;;27.75;20.71;100670.01;1836163;76;21364;-84
2022/05/17 09:42:42;;;;;;;2.77;0.78;;;;;;;27.96;20.41;100655.55;1835283;77;20902;-86
2022/05/17 09:45:16;;;;;;;2.37;0.33;;;;;;;28.16;20.45;100662.30;1835352;76;20867;-84
2022/05/17 09:47:46;;;;;;;;;;;;;;;28.35;19.86;100663.36;1837733;77;20914;-86
2022/05/17 09:53:18;;;;;;;1.90;0.20;;;;;;;28.46;19.75;100664.59;1834821;76;20832;-85
2022/05/17 09:55:48;;;;;;;1.22;0.35;;;;;;;28.29;19.90;100665.53;1833863;76;20871;-86
2022/05/17 09:58:33;;;;;;;3.62;0.40;;;;;;;27.98;19.71;100660.74;1806342;77;20958;-86
2022/05/17 10:01:01;;;;;;;2.37;0.40;;;;;;;27.75;19.61;100652.98;1832032;78;20863;-86
2022/05/17 10:03:34;;;;;;;3.40;0.30;;;;;;;27.68;20.17;100659.70;1832036;78;21343;-85
2022/05/17 10:06:14;;;;;;;2.83;0.40;;;;;;;27.43;20.21;100662.95;1832616;78;21009;-87
2022/05/17 10:09:01;;;;;;;2.08;0.20;;;;;;;27.49;20.66;100673.45;1833096;78;20914;-84
2022/05/17 10:11:45;;;;;;;1.67;0.60;;;;;;;27.34;21.12;100668.20;1833065;78;21491;-84
2022/05/17 10:14:23;;;;;;;0.70;0.40;;;;;;;27.50;21.13;100658.94;1832594;77;20910;-87
2022/05/17 10:17:01;;;;;;;1.65;1.05;;;;;;;27.72;20.98;100658.27;1832305;78;21110;-84
2022/05/17 10:19:39;;;;;;;4.80;1.07;;;;;;;27.93;20.83;100657.31;1831756;78;20895;-83
2022/05/17 10:22:23;;;;;;;1.75;0.40;;;;;;;28.23;20.64;100655.56;1832700;78;20954;-85
2022/05/17 10:25:22;;;;;;;1.85;0.60;;;;;;;28.30;20.42;100653.69;1832145;77;20871;-84
2022/05/17 10:27:57;;;;;;;2.92;0.40;;;;;;;28.16;20.44;100657.44;1832391;78;20855;-84
2022/05/17 10:30:57;;;;;;;3.85;0.60;;;;;;;27.81;20.58;100650.83;1832858;77;21204;-85
2022/05/17 10:33:39;;;;;;;2.85;0.40;;;;;;;27.77;21.36;100646.87;1833106;78;20926;-84
2022/05/17 10:36:26;;;;;;;0.80;0.23;;;;;;;27.89;20.91;100635.32;1833180;78;20931;-83
2022/05/17 10:39:26;;;;;;;4.67;0.53;;;;;;;28.17;19.76;100636.16;1834524;78;20994;-83
2022/05/17 10:41:53;;;;;;;8.75;0.93;;;;;;;28.40;19.65;100635.75;1833280;78;20907;-86
2022/05/17 10:44:20;;;;;;;2.40;0.78;;;;;;;28.62;18.86;100634.50;1832973;78;21930;-85
2022/05/17 10:46:56;;;;;;;6.70;0.95;;;;;;;28.68;19.32;100629.61;1832997;78;20942;-85
2022/05/17 10:49:30;;;;;;;5.72;0.93;;;;;;;28.73;18.81;100627.10;1805250;78;21454;-85
2022/05/17 10:52:17;;;;;;;5.37;1.30;;;;;;;28.83;18.54;100621.78;1831867;78;20879;-86
2022/05/17 10:55:05;;;;;;;2.90;1.60;;;;;;;28.95;18.27;100611.98;1832874;78;21290;-86
2022/05/17 10:57:45;;;;;;;3.08;1.00;;;;;;;29.00;18.75;100614.05;1833816;75;21052;-87
2022/05/17 11:00:22;;;;;;;2.17;1.10;;;;;;;29.10;18.47;100615.28;1835384;76;21336;-87
2022/05/17 11:03:13;;;;;;;1.50;0.80;;;;;;;29.12;18.25;100613.70;1835016;77;20980;-86
2022/05/17 11:06:05;;;;;;;4.08;0.65;;;;;;;29.18;18.92;100613.37;1834985;77;21376;-85
2022/05/17 11:08:52;;;;;;;1.47;0.40;;;;;;;29.17;18.59;100609.00;1834735;77;20867;-87
2022/05/17 11:11:59;;;;;;;4.92;0.90;;;;;;;29.28;17.60;100593.46;1834968;77;21198;-85
2022/05/17 11:14:37;;;;;;;2.42;0.82;;;;;;;29.37;17.07;100602.14;1836282;76;21090;-85
2022/05/17 11:17:19;;;;;;;3.42;1.50;;;;;;;29.22;17.84;100609.20;1829398;76;20982;-85
2022/05/17 11:20:13;;;;;;;1.70;0.62;;;;;;;29.07;17.50;100598.11;1836157;76;20961;-85
2022/05/17 11:23:01;;;;;;;5.53;1.55;;;;;;;28.88;18.31;100601.22;1835239;77;21506;-88
2022/05/17 11:25:51;;;;;;;2.87;0.90;;;;;;;28.78;18.63;100591.91;1835044;77;21227;-87
2022/05/17 11:28:38;;;;;;;3.55;0.50;;;;;;;28.71;19.25;100587.34;1834304;77;21001;-85
2022/05/17 11:31:49;;;;;;;3.92;0.80;;;;;;;28.64;17.96;100581.67;1835392;77;21408;-85
2022/05/17 11:34:35;;;;;;;7.42;0.53;;;;;;;28.38;17.95;100573.91;1835421;77;20982;-84
2022/05/17 11:37:09;;;;;;;2.17;0.50;;;;;;;28.09;18.75;100577.36;1835628;78;20906;-86
2022/05/17 11:39:46;;;;;;;1.32;0.53;;;;;;;27.84;19.45;100579.86;1835765;77;21371;-86
2022/05/17 11:42:27;;;;;;;0.55;0.20;;;;;;;27.59;18.68;100575.56;1837270;77;20879;-85
2022/05/17 11:44:54;;;;;;;0.25;0.20;;;;;;;27.24;19.13;100574.87;1820924;77;20989;-84
2022/05/17 11:47:41;;;;;;;1.67;0.30;;;;;;;26.94;19.77;100577.81;1835708;77;20957;-86
2022/05/17 11:50:25;;;;;;;1.17;0.53;;;;;;;26.69;18.99;100568.61;1835140;78;20934;-87
2022/05/17 11:53:25;;;;;;;0.88;0.30;;;;;;;26.42;19.82;100565.73;1832521;77;21208;-87
2022/05/17 11:56:33;;;;;;;1.45;0.23;;;;;;;26.25;21.03;100558.48;1834719;76;20938;-86
2022/05/17 11:59:15;;;;;;;1.50;0.40;;;;;;;26.10;21.39;100557.75;1858735;77;20907;-86